< < Back
Terminal Aerodrome Forecast


Current Version              Previous Versions:   1  2  3  4  5  6  7  8  9  

Terminal Aerodrome Forecast

694
FTUS42 KTAE 061100
TAFDHN
TAF
KDHN 061131Z 0612/0712 36012G18KT P6SM SCT250
     FM062300 36003KT P6SM SCT250=

Latest METAR

694
SAUS70 KWBC 070400 RRI
MTRDHN
METAR KDHN 070353Z AUTO 00000KT 10SM CLR 05/03 A3046 RMK AO2 SLP315
T00500028


USA.gov is the U.S. government's official web portal to all federal, state and local government web resources and services.